sensor_id;sensor_type;location;lat;lon;timestamp;P1;durP1;ratioP1;P2;durP2;ratioP2
67508;SDS011;54354;44.724;11.284;2023-03-03T00:00:09;56.63;;;41.90;;
67508;SDS011;54354;44.724;11.284;2023-03-03T00:02:38;58.30;;;41.13;;
67508;SDS011;54354;44.724;11.284;2023-03-03T00:05:04;56.55;;;41.08;;
67508;SDS011;54354;44.724;11.284;2023-03-03T00:07:29;55.33;;;40.55;;
67508;SDS011;54354;44.724;11.284;2023-03-03T00:09:55;55.08;;;41.38;;
67508;SDS011;54354;44.724;11.284;2023-03-03T00:12:28;54.78;;;42.10;;
67508;SDS011;54354;44.724;11.284;2023-03-03T00:14:54;54.80;;;40.58;;
67508;SDS011;54354;44.724;11.284;2023-03-03T00:17:22;54.53;;;40.17;;
67508;SDS011;54354;44.724;11.284;2023-03-03T00:19:49;51.80;;;39.20;;
67508;SDS011;54354;44.724;11.284;2023-03-03T00:22:28;52.05;;;40.13;;
67508;SDS011;54354;44.724;11.284;2023-03-03T00:27:42;54.50;;;40.10;;
67508;SDS011;54354;44.724;11.284;2023-03-03T00:30:16;52.13;;;38.42;;
67508;SDS011;54354;44.724;11.284;2023-03-03T00:32:47;53.40;;;38.80;;
67508;SDS011;54354;44.724;11.284;2023-03-03T00:35:22;54.88;;;40.17;;
67508;SDS011;54354;44.724;11.284;2023-03-03T00:37:58;55.95;;;39.55;;
67508;SDS011;54354;44.724;11.284;2023-03-03T00:40:26;56.25;;;41.03;;
67508;SDS011;54354;44.724;11.284;2023-03-03T00:42:59;54.13;;;40.28;;
67508;SDS011;54354;44.724;11.284;2023-03-03T00:48:20;60.95;;;42.30;;
67508;SDS011;54354;44.724;11.284;2023-03-03T00:53:54;57.05;;;41.90;;
67508;SDS011;54354;44.724;11.284;2023-03-03T00:56:20;60.58;;;41.50;;
67508;SDS011;54354;44.724;11.284;2023-03-03T00:58:47;61.25;;;43.08;;
67508;SDS011;54354;44.724;11.284;2023-03-03T01:01:15;58.22;;;42.30;;
67508;SDS011;54354;44.724;11.284;2023-03-03T01:03:46;67.82;;;44.25;;
67508;SDS011;54354;44.724;11.284;2023-03-03T01:06:11;61.72;;;42.13;;
67508;SDS011;54354;44.724;11.284;2023-03-03T01:08:37;61.22;;;42.40;;
67508;SDS011;54354;44.724;11.284;2023-03-03T01:11:08;58.50;;;42.70;;
67508;SDS011;54354;44.724;11.284;2023-03-03T01:13:41;60.10;;;43.40;;
67508;SDS011;54354;44.724;11.284;2023-03-03T01:16:09;63.65;;;44.50;;
67508;SDS011;54354;44.724;11.284;2023-03-03T01:18:35;60.28;;;42.92;;
67508;SDS011;54354;44.724;11.284;2023-03-03T01:21:01;59.63;;;42.08;;
67508;SDS011;54354;44.724;11.284;2023-03-03T01:23:27;60.20;;;42.45;;
67508;SDS011;54354;44.724;11.284;2023-03-03T01:25:53;58.42;;;41.85;;
67508;SDS011;54354;44.724;11.284;2023-03-03T01:28:19;57.25;;;42.15;;
67508;SDS011;54354;44.724;11.284;2023-03-03T01:30:45;56.13;;;40.75;;
67508;SDS011;54354;44.724;11.284;2023-03-03T01:33:11;55.55;;;40.83;;
67508;SDS011;54354;44.724;11.284;2023-03-03T01:35:37;54.00;;;40.58;;
67508;SDS011;54354;44.724;11.284;2023-03-03T01:38:08;56.28;;;40.05;;
67508;SDS011;54354;44.724;11.284;2023-03-03T01:40:33;51.83;;;39.97;;
67508;SDS011;54354;44.724;11.284;2023-03-03T01:43:02;51.88;;;40.10;;
67508;SDS011;54354;44.724;11.284;2023-03-03T01:45:29;51.03;;;39.17;;
67508;SDS011;54354;44.724;11.284;2023-03-03T01:47:59;58.20;;;40.35;;
67508;SDS011;54354;44.724;11.284;2023-03-03T01:50:44;54.90;;;40.15;;
67508;SDS011;54354;44.724;11.284;2023-03-03T01:53:15;55.88;;;40.97;;
67508;SDS011;54354;44.724;11.284;2023-03-03T01:55:44;55.67;;;40.05;;
67508;SDS011;54354;44.724;11.284;2023-03-03T02:00:40;56.10;;;41.88;;
67508;SDS011;54354;44.724;11.284;2023-03-03T02:03:10;56.83;;;42.50;;
67508;SDS011;54354;44.724;11.284;2023-03-03T02:05:35;61.35;;;42.22;;
67508;SDS011;54354;44.724;11.284;2023-03-03T02:08:02;54.47;;;42.30;;
67508;SDS011;54354;44.724;11.284;2023-03-03T02:10:28;53.55;;;41.40;;
67508;SDS011;54354;44.724;11.284;2023-03-03T02:12:56;52.58;;;39.95;;
67508;SDS011;54354;44.724;11.284;2023-03-03T02:17:54;53.72;;;40.45;;
67508;SDS011;54354;44.724;11.284;2023-03-03T02:28:23;54.53;;;40.33;;
67508;SDS011;54354;44.724;11.284;2023-03-03T02:30:55;51.63;;;40.47;;
67508;SDS011;54354;44.724;11.284;2023-03-03T02:33:23;56.53;;;42.30;;
67508;SDS011;54354;44.724;11.284;2023-03-03T02:35:49;58.88;;;42.08;;
67508;SDS011;54354;44.724;11.284;2023-03-03T02:40:47;54.28;;;39.78;;
67508;SDS011;54354;44.724;11.284;2023-03-03T02:49:12;57.00;;;41.60;;
67508;SDS011;54354;44.724;11.284;2023-03-03T02:51:40;63.38;;;42.58;;
67508;SDS011;54354;44.724;11.284;2023-03-03T02:54:07;59.83;;;43.03;;
67508;SDS011;54354;44.724;11.284;2023-03-03T02:56:34;57.90;;;42.42;;
67508;SDS011;54354;44.724;11.284;2023-03-03T02:59:00;56.70;;;41.22;;
67508;SDS011;54354;44.724;11.284;2023-03-03T03:01:28;62.25;;;43.08;;
67508;SDS011;54354;44.724;11.284;2023-03-03T03:03:57;58.22;;;43.28;;
67508;SDS011;54354;44.724;11.284;2023-03-03T03:06:23;62.10;;;42.40;;
67508;SDS011;54354;44.724;11.284;2023-03-03T03:08:49;62.17;;;42.40;;
67508;SDS011;54354;44.724;11.284;2023-03-03T03:11:14;62.50;;;43.22;;
67508;SDS011;54354;44.724;11.284;2023-03-03T03:13:40;62.13;;;43.20;;
67508;SDS011;54354;44.724;11.284;2023-03-03T03:16:05;62.15;;;43.42;;
67508;SDS011;54354;44.724;11.284;2023-03-03T03:18:31;61.85;;;42.33;;
67508;SDS011;54354;44.724;11.284;2023-03-03T03:21:04;61.10;;;41.90;;
67508;SDS011;54354;44.724;11.284;2023-03-03T03:23:30;62.15;;;43.00;;
67508;SDS011;54354;44.724;11.284;2023-03-03T03:25:57;61.38;;;43.03;;
67508;SDS011;54354;44.724;11.284;2023-03-03T03:28:26;60.83;;;44.10;;
67508;SDS011;54354;44.724;11.284;2023-03-03T03:30:52;63.05;;;43.22;;
67508;SDS011;54354;44.724;11.284;2023-03-03T03:33:20;65.70;;;42.80;;
67508;SDS011;54354;44.724;11.284;2023-03-03T03:35:45;63.90;;;42.95;;
67508;SDS011;54354;44.724;11.284;2023-03-03T03:38:14;62.78;;;43.50;;
67508;SDS011;54354;44.724;11.284;2023-03-03T03:40:40;62.22;;;43.65;;
67508;SDS011;54354;44.724;11.284;2023-03-03T03:43:06;63.88;;;43.95;;
67508;SDS011;54354;44.724;11.284;2023-03-03T03:45:32;63.65;;;42.88;;
67508;SDS011;54354;44.724;11.284;2023-03-03T03:47:59;61.97;;;43.90;;
67508;SDS011;54354;44.724;11.284;2023-03-03T03:50:25;60.13;;;43.22;;
67508;SDS011;54354;44.724;11.284;2023-03-03T03:52:51;60.42;;;41.97;;
67508;SDS011;54354;44.724;11.284;2023-03-03T03:55:17;62.28;;;42.25;;
67508;SDS011;54354;44.724;11.284;2023-03-03T03:57:42;52.67;;;41.45;;
67508;SDS011;54354;44.724;11.284;2023-03-03T04:00:09;63.03;;;43.83;;
67508;SDS011;54354;44.724;11.284;2023-03-03T04:02:47;62.00;;;42.42;;
67508;SDS011;54354;44.724;11.284;2023-03-03T04:05:14;60.42;;;42.97;;
67508;SDS011;54354;44.724;11.284;2023-03-03T04:07:40;59.25;;;42.42;;
67508;SDS011;54354;44.724;11.284;2023-03-03T04:10:07;60.38;;;41.97;;
67508;SDS011;54354;44.724;11.284;2023-03-03T04:12:33;58.83;;;43.00;;
67508;SDS011;54354;44.724;11.284;2023-03-03T04:15:07;60.22;;;42.85;;
67508;SDS011;54354;44.724;11.284;2023-03-03T04:17:35;60.78;;;41.53;;
67508;SDS011;54354;44.724;11.284;2023-03-03T04:20:01;61.63;;;43.13;;
67508;SDS011;54354;44.724;11.284;2023-03-03T04:22:28;61.08;;;43.80;;
67508;SDS011;54354;44.724;11.284;2023-03-03T04:27:25;58.15;;;42.10;;
67508;SDS011;54354;44.724;11.284;2023-03-03T04:29:51;62.80;;;43.03;;
67508;SDS011;54354;44.724;11.284;2023-03-03T04:32:17;61.40;;;42.95;;
67508;SDS011;54354;44.724;11.284;2023-03-03T04:34:44;60.30;;;42.33;;
67508;SDS011;54354;44.724;11.284;2023-03-03T04:37:10;58.65;;;41.72;;
67508;SDS011;54354;44.724;11.284;2023-03-03T04:39:35;56.58;;;42.25;;
67508;SDS011;54354;44.724;11.284;2023-03-03T04:42:02;64.15;;;44.20;;
67508;SDS011;54354;44.724;11.284;2023-03-03T04:44:27;63.08;;;44.17;;
67508;SDS011;54354;44.724;11.284;2023-03-03T04:46:53;65.68;;;44.65;;
67508;SDS011;54354;44.724;11.284;2023-03-03T04:49:19;61.53;;;43.67;;
67508;SDS011;54354;44.724;11.284;2023-03-03T04:51:44;58.38;;;42.92;;
67508;SDS011;54354;44.724;11.284;2023-03-03T04:54:10;64.22;;;43.30;;
67508;SDS011;54354;44.724;11.284;2023-03-03T04:56:36;63.92;;;44.45;;
67508;SDS011;54354;44.724;11.284;2023-03-03T04:59:02;63.83;;;44.30;;
67508;SDS011;54354;44.724;11.284;2023-03-03T05:01:28;63.08;;;44.85;;
67508;SDS011;54354;44.724;11.284;2023-03-03T05:03:54;62.70;;;43.70;;
67508;SDS011;54354;44.724;11.284;2023-03-03T05:06:20;58.53;;;42.08;;
67508;SDS011;54354;44.724;11.284;2023-03-03T05:08:46;58.72;;;40.63;;
67508;SDS011;54354;44.724;11.284;2023-03-03T05:11:11;56.38;;;40.22;;
67508;SDS011;54354;44.724;11.284;2023-03-03T05:13:38;65.30;;;43.55;;
67508;SDS011;54354;44.724;11.284;2023-03-03T05:16:03;65.05;;;42.60;;
67508;SDS011;54354;44.724;11.284;2023-03-03T05:18:29;65.05;;;43.25;;
67508;SDS011;54354;44.724;11.284;2023-03-03T05:20:55;60.42;;;43.17;;
67508;SDS011;54354;44.724;11.284;2023-03-03T05:23:21;66.72;;;43.25;;
67508;SDS011;54354;44.724;11.284;2023-03-03T05:25:47;64.38;;;43.38;;
67508;SDS011;54354;44.724;11.284;2023-03-03T05:28:13;64.47;;;45.67;;
67508;SDS011;54354;44.724;11.284;2023-03-03T05:30:39;62.72;;;43.88;;
67508;SDS011;54354;44.724;11.284;2023-03-03T05:33:04;62.92;;;44.00;;
67508;SDS011;54354;44.724;11.284;2023-03-03T05:35:30;65.70;;;43.78;;
67508;SDS011;54354;44.724;11.284;2023-03-03T05:37:56;67.47;;;44.13;;
67508;SDS011;54354;44.724;11.284;2023-03-03T05:40:25;64.53;;;44.65;;
67508;SDS011;54354;44.724;11.284;2023-03-03T05:42:51;62.78;;;43.67;;
67508;SDS011;54354;44.724;11.284;2023-03-03T05:45:16;63.40;;;43.40;;
67508;SDS011;54354;44.724;11.284;2023-03-03T05:47:46;65.47;;;43.53;;
67508;SDS011;54354;44.724;11.284;2023-03-03T05:50:12;64.63;;;44.08;;
67508;SDS011;54354;44.724;11.284;2023-03-03T05:52:38;72.90;;;43.88;;
67508;SDS011;54354;44.724;11.284;2023-03-03T05:55:03;68.40;;;44.33;;
67508;SDS011;54354;44.724;11.284;2023-03-03T05:57:29;67.25;;;44.13;;
67508;SDS011;54354;44.724;11.284;2023-03-03T05:59:55;65.32;;;44.00;;
67508;SDS011;54354;44.724;11.284;2023-03-03T06:02:21;66.60;;;44.35;;
67508;SDS011;54354;44.724;11.284;2023-03-03T06:04:46;66.80;;;44.05;;
67508;SDS011;54354;44.724;11.284;2023-03-03T06:07:11;71.63;;;45.17;;
67508;SDS011;54354;44.724;11.284;2023-03-03T06:09:37;64.90;;;45.88;;
67508;SDS011;54354;44.724;11.284;2023-03-03T06:12:02;66.60;;;44.55;;
67508;SDS011;54354;44.724;11.284;2023-03-03T06:14:28;66.88;;;45.15;;
67508;SDS011;54354;44.724;11.284;2023-03-03T06:16:54;69.10;;;43.88;;
67508;SDS011;54354;44.724;11.284;2023-03-03T06:19:21;65.35;;;43.75;;
67508;SDS011;54354;44.724;11.284;2023-03-03T06:21:47;64.00;;;42.75;;
67508;SDS011;54354;44.724;11.284;2023-03-03T06:24:13;61.92;;;41.65;;
67508;SDS011;54354;44.724;11.284;2023-03-03T06:26:39;59.72;;;42.00;;
67508;SDS011;54354;44.724;11.284;2023-03-03T06:29:04;60.25;;;42.55;;
67508;SDS011;54354;44.724;11.284;2023-03-03T06:31:31;67.38;;;44.33;;
67508;SDS011;54354;44.724;11.284;2023-03-03T06:33:56;61.10;;;41.08;;
67508;SDS011;54354;44.724;11.284;2023-03-03T06:36:22;63.40;;;43.00;;
67508;SDS011;54354;44.724;11.284;2023-03-03T06:38:47;61.45;;;44.60;;
67508;SDS011;54354;44.724;11.284;2023-03-03T06:41:13;59.63;;;42.70;;
67508;SDS011;54354;44.724;11.284;2023-03-03T06:43:38;57.22;;;40.97;;
67508;SDS011;54354;44.724;11.284;2023-03-03T06:46:04;70.97;;;43.75;;
67508;SDS011;54354;44.724;11.284;2023-03-03T06:48:30;75.88;;;45.08;;
67508;SDS011;54354;44.724;11.284;2023-03-03T06:50:58;84.10;;;46.55;;
67508;SDS011;54354;44.724;11.284;2023-03-03T06:53:25;75.07;;;45.90;;
67508;SDS011;54354;44.724;11.284;2023-03-03T06:55:50;71.00;;;45.20;;
67508;SDS011;54354;44.724;11.284;2023-03-03T06:58:17;68.53;;;44.13;;
67508;SDS011;54354;44.724;11.284;2023-03-03T07:00:45;67.35;;;43.95;;
67508;SDS011;54354;44.724;11.284;2023-03-03T07:03:15;57.42;;;39.67;;
67508;SDS011;54354;44.724;11.284;2023-03-03T07:05:42;57.00;;;38.80;;
67508;SDS011;54354;44.724;11.284;2023-03-03T07:08:14;52.97;;;38.33;;
67508;SDS011;54354;44.724;11.284;2023-03-03T07:10:42;56.00;;;38.00;;
67508;SDS011;54354;44.724;11.284;2023-03-03T07:13:27;53.53;;;38.00;;
67508;SDS011;54354;44.724;11.284;2023-03-03T07:15:58;49.92;;;36.35;;
67508;SDS011;54354;44.724;11.284;2023-03-03T07:21:22;52.33;;;36.90;;
67508;SDS011;54354;44.724;11.284;2023-03-03T07:23:55;46.38;;;34.67;;
67508;SDS011;54354;44.724;11.284;2023-03-03T07:26:24;51.30;;;36.50;;
67508;SDS011;54354;44.724;11.284;2023-03-03T07:28:59;49.00;;;34.25;;
67508;SDS011;54354;44.724;11.284;2023-03-03T07:34:00;49.75;;;34.92;;
67508;SDS011;54354;44.724;11.284;2023-03-03T07:36:30;49.45;;;34.38;;
67508;SDS011;54354;44.724;11.284;2023-03-03T07:39:00;49.55;;;35.13;;
67508;SDS011;54354;44.724;11.284;2023-03-03T07:41:29;47.70;;;34.47;;
67508;SDS011;54354;44.724;11.284;2023-03-03T07:46:39;50.35;;;35.47;;
67508;SDS011;54354;44.724;11.284;2023-03-03T07:51:56;48.55;;;34.75;;
67508;SDS011;54354;44.724;11.284;2023-03-03T07:56:52;49.80;;;35.88;;
67508;SDS011;54354;44.724;11.284;2023-03-03T07:59:23;49.17;;;34.22;;
67508;SDS011;54354;44.724;11.284;2023-03-03T08:01:50;46.33;;;33.88;;
67508;SDS011;54354;44.724;11.284;2023-03-03T08:04:20;46.87;;;34.27;;
67508;SDS011;54354;44.724;11.284;2023-03-03T08:06:57;48.58;;;33.00;;
67508;SDS011;54354;44.724;11.284;2023-03-03T08:14:26;51.00;;;32.80;;
67508;SDS011;54354;44.724;11.284;2023-03-03T08:16:56;49.65;;;33.95;;
67508;SDS011;54354;44.724;11.284;2023-03-03T08:19:22;45.83;;;32.92;;
67508;SDS011;54354;44.724;11.284;2023-03-03T08:21:48;47.05;;;33.33;;
67508;SDS011;54354;44.724;11.284;2023-03-03T08:24:14;49.30;;;33.42;;
67508;SDS011;54354;44.724;11.284;2023-03-03T08:26:39;46.33;;;32.38;;
67508;SDS011;54354;44.724;11.284;2023-03-03T08:29:05;46.88;;;34.15;;
67508;SDS011;54354;44.724;11.284;2023-03-03T08:31:30;51.22;;;33.42;;
67508;SDS011;54354;44.724;11.284;2023-03-03T08:33:56;57.78;;;34.33;;
67508;SDS011;54354;44.724;11.284;2023-03-03T08:36:22;47.05;;;32.28;;
67508;SDS011;54354;44.724;11.284;2023-03-03T08:38:48;46.45;;;32.67;;
67508;SDS011;54354;44.724;11.284;2023-03-03T08:41:14;50.67;;;33.13;;
67508;SDS011;54354;44.724;11.284;2023-03-03T08:43:39;48.38;;;32.60;;
67508;SDS011;54354;44.724;11.284;2023-03-03T08:46:05;49.25;;;34.45;;
67508;SDS011;54354;44.724;11.284;2023-03-03T08:48:32;54.53;;;33.63;;
67508;SDS011;54354;44.724;11.284;2023-03-03T08:50:57;53.72;;;35.28;;
67508;SDS011;54354;44.724;11.284;2023-03-03T08:53:23;47.13;;;32.33;;
67508;SDS011;54354;44.724;11.284;2023-03-03T08:55:50;49.10;;;34.03;;
67508;SDS011;54354;44.724;11.284;2023-03-03T08:58:16;48.85;;;33.20;;
67508;SDS011;54354;44.724;11.284;2023-03-03T09:00:43;51.20;;;34.53;;
67508;SDS011;54354;44.724;11.284;2023-03-03T09:03:09;54.67;;;34.00;;
67508;SDS011;54354;44.724;11.284;2023-03-03T09:05:35;49.65;;;33.53;;
67508;SDS011;54354;44.724;11.284;2023-03-03T09:08:02;47.95;;;33.22;;
67508;SDS011;54354;44.724;11.284;2023-03-03T09:10:28;48.78;;;32.97;;
67508;SDS011;54354;44.724;11.284;2023-03-03T09:12:59;47.90;;;33.17;;
67508;SDS011;54354;44.724;11.284;2023-03-03T09:15:31;43.10;;;32.90;;
67508;SDS011;54354;44.724;11.284;2023-03-03T09:17:59;47.85;;;33.00;;
67508;SDS011;54354;44.724;11.284;2023-03-03T09:20:50;47.53;;;32.60;;
67508;SDS011;54354;44.724;11.284;2023-03-03T09:25:48;47.47;;;33.00;;
67508;SDS011;54354;44.724;11.284;2023-03-03T09:28:30;46.20;;;33.50;;
67508;SDS011;54354;44.724;11.284;2023-03-03T09:30:59;48.33;;;34.75;;
67508;SDS011;54354;44.724;11.284;2023-03-03T09:33:27;50.08;;;35.42;;
67508;SDS011;54354;44.724;11.284;2023-03-03T09:38:57;47.95;;;34.85;;
67508;SDS011;54354;44.724;11.284;2023-03-03T09:47:34;48.00;;;34.70;;
67508;SDS011;54354;44.724;11.284;2023-03-03T09:50:11;48.22;;;34.97;;
67508;SDS011;54354;44.724;11.284;2023-03-03T10:18:14;52.08;;;37.65;;
67508;SDS011;54354;44.724;11.284;2023-03-03T10:20:44;56.88;;;38.10;;
67508;SDS011;54354;44.724;11.284;2023-03-03T10:31:22;53.33;;;36.60;;
67508;SDS011;54354;44.724;11.284;2023-03-03T10:39:30;51.20;;;37.17;;
67508;SDS011;54354;44.724;11.284;2023-03-03T10:42:13;49.85;;;34.50;;
67508;SDS011;54354;44.724;11.284;2023-03-03T10:50:26;52.58;;;36.78;;
67508;SDS011;54354;44.724;11.284;2023-03-03T10:57:56;50.95;;;35.55;;
67508;SDS011;54354;44.724;11.284;2023-03-03T11:00:41;48.00;;;35.13;;
67508;SDS011;54354;44.724;11.284;2023-03-03T11:06:01;46.67;;;30.77;;
67508;SDS011;54354;44.724;11.284;2023-03-03T11:19:47;41.05;;;28.65;;
67508;SDS011;54354;44.724;11.284;2023-03-03T11:30:55;39.05;;;27.55;;
67508;SDS011;54354;44.724;11.284;2023-03-03T11:38:56;31.17;;;23.60;;
67508;SDS011;54354;44.724;11.284;2023-03-03T11:50:07;28.25;;;20.83;;
67508;SDS011;54354;44.724;11.284;2023-03-03T11:55:44;28.90;;;22.30;;
67508;SDS011;54354;44.724;11.284;2023-03-03T11:58:21;28.95;;;21.23;;
67508;SDS011;54354;44.724;11.284;2023-03-03T12:09:02;24.80;;;17.80;;
67508;SDS011;54354;44.724;11.284;2023-03-03T12:19:30;26.50;;;19.98;;
67508;SDS011;54354;44.724;11.284;2023-03-03T12:37:50;27.70;;;20.58;;
67508;SDS011;54354;44.724;11.284;2023-03-03T12:40:27;24.55;;;18.33;;
67508;SDS011;54354;44.724;11.284;2023-03-03T12:48:58;24.50;;;19.50;;
67508;SDS011;54354;44.724;11.284;2023-03-03T13:07:53;29.52;;;21.25;;
67508;SDS011;54354;44.724;11.284;2023-03-03T13:13:17;30.75;;;22.25;;
67508;SDS011;54354;44.724;11.284;2023-03-03T13:15:59;32.20;;;24.10;;
67508;SDS011;54354;44.724;11.284;2023-03-03T13:21:04;31.30;;;22.70;;
67508;SDS011;54354;44.724;11.284;2023-03-03T13:23:37;33.50;;;23.50;;
67508;SDS011;54354;44.724;11.284;2023-03-03T13:28:36;28.17;;;21.42;;
67508;SDS011;54354;44.724;11.284;2023-03-03T13:31:20;27.77;;;21.33;;
67508;SDS011;54354;44.724;11.284;2023-03-03T13:33:56;31.05;;;21.02;;
67508;SDS011;54354;44.724;11.284;2023-03-03T13:36:41;27.60;;;20.88;;
67508;SDS011;54354;44.724;11.284;2023-03-03T13:39:22;24.52;;;19.05;;
67508;SDS011;54354;44.724;11.284;2023-03-03T13:41:56;26.85;;;18.92;;
67508;SDS011;54354;44.724;11.284;2023-03-03T13:44:24;22.50;;;17.25;;
67508;SDS011;54354;44.724;11.284;2023-03-03T13:47:01;22.73;;;17.55;;
67508;SDS011;54354;44.724;11.284;2023-03-03T13:55:20;22.52;;;16.17;;
67508;SDS011;54354;44.724;11.284;2023-03-03T14:00:20;22.25;;;17.25;;
67508;SDS011;54354;44.724;11.284;2023-03-03T14:13:58;23.30;;;15.93;;
67508;SDS011;54354;44.724;11.284;2023-03-03T14:16:34;19.13;;;14.10;;
67508;SDS011;54354;44.724;11.284;2023-03-03T14:21:47;23.05;;;14.15;;
67508;SDS011;54354;44.724;11.284;2023-03-03T14:24:20;19.50;;;14.75;;
67508;SDS011;54354;44.724;11.284;2023-03-03T14:26:50;20.08;;;15.15;;
67508;SDS011;54354;44.724;11.284;2023-03-03T14:29:36;22.35;;;15.50;;
67508;SDS011;54354;44.724;11.284;2023-03-03T14:32:02;19.40;;;15.98;;
67508;SDS011;54354;44.724;11.284;2023-03-03T14:34:45;18.83;;;14.13;;
67508;SDS011;54354;44.724;11.284;2023-03-03T14:37:43;18.85;;;12.95;;
67508;SDS011;54354;44.724;11.284;2023-03-03T14:45:19;19.40;;;14.23;;
67508;SDS011;54354;44.724;11.284;2023-03-03T14:47:53;17.40;;;14.40;;
67508;SDS011;54354;44.724;11.284;2023-03-03T14:50:38;19.30;;;13.35;;
67508;SDS011;54354;44.724;11.284;2023-03-03T14:53:19;15.02;;;12.23;;
67508;SDS011;54354;44.724;11.284;2023-03-03T14:55:50;19.20;;;11.30;;
67508;SDS011;54354;44.724;11.284;2023-03-03T15:00:50;16.35;;;11.57;;
67508;SDS011;54354;44.724;11.284;2023-03-03T15:03:30;15.43;;;11.18;;
67508;SDS011;54354;44.724;11.284;2023-03-03T15:05:56;16.17;;;10.80;;
67508;SDS011;54354;44.724;11.284;2023-03-03T15:08:31;16.75;;;11.18;;
67508;SDS011;54354;44.724;11.284;2023-03-03T15:13:42;15.98;;;12.07;;
67508;SDS011;54354;44.724;11.284;2023-03-03T15:16:09;12.82;;;11.25;;
67508;SDS011;54354;44.724;11.284;2023-03-03T15:21:34;16.45;;;11.82;;
67508;SDS011;54354;44.724;11.284;2023-03-03T15:24:22;17.95;;;12.38;;
67508;SDS011;54354;44.724;11.284;2023-03-03T15:32:20;15.32;;;10.65;;
67508;SDS011;54354;44.724;11.284;2023-03-03T15:34:53;16.10;;;11.32;;
67508;SDS011;54354;44.724;11.284;2023-03-03T15:40:47;17.95;;;10.88;;
67508;SDS011;54354;44.724;11.284;2023-03-03T15:43:51;17.55;;;10.88;;
67508;SDS011;54354;44.724;11.284;2023-03-03T15:46:23;14.13;;;10.07;;
67508;SDS011;54354;44.724;11.284;2023-03-03T15:51:40;11.55;;;10.07;;
67508;SDS011;54354;44.724;11.284;2023-03-03T15:54:31;15.75;;;10.15;;
67508;SDS011;54354;44.724;11.284;2023-03-03T15:57:12;15.43;;;10.32;;
67508;SDS011;54354;44.724;11.284;2023-03-03T16:02:55;14.13;;;11.00;;
67508;SDS011;54354;44.724;11.284;2023-03-03T16:11:29;13.05;;;11.00;;
67508;SDS011;54354;44.724;11.284;2023-03-03T16:32:47;7.28;;;4.35;;
67508;SDS011;54354;44.724;11.284;2023-03-03T16:37:56;6.30;;;3.53;;
67508;SDS011;54354;44.724;11.284;2023-03-03T16:40:25;4.93;;;3.20;;
67508;SDS011;54354;44.724;11.284;2023-03-03T16:45:39;4.13;;;2.85;;
67508;SDS011;54354;44.724;11.284;2023-03-03T16:50:56;3.20;;;2.88;;
67508;SDS011;54354;44.724;11.284;2023-03-03T16:56:27;7.13;;;3.47;;
67508;SDS011;54354;44.724;11.284;2023-03-03T17:01:32;4.22;;;3.40;;
67508;SDS011;54354;44.724;11.284;2023-03-03T17:06:35;9.38;;;3.70;;
67508;SDS011;54354;44.724;11.284;2023-03-03T17:09:17;4.00;;;3.53;;
67508;SDS011;54354;44.724;11.284;2023-03-03T17:15:09;5.70;;;4.03;;
67508;SDS011;54354;44.724;11.284;2023-03-03T17:17:56;7.40;;;4.25;;
67508;SDS011;54354;44.724;11.284;2023-03-03T17:20:29;9.93;;;4.53;;
67508;SDS011;54354;44.724;11.284;2023-03-03T17:31:22;7.43;;;4.65;;
67508;SDS011;54354;44.724;11.284;2023-03-03T17:36:57;11.23;;;5.00;;
67508;SDS011;54354;44.724;11.284;2023-03-03T17:45:14;7.25;;;4.70;;
67508;SDS011;54354;44.724;11.284;2023-03-03T17:50:25;7.25;;;5.18;;
67508;SDS011;54354;44.724;11.284;2023-03-03T17:53:11;11.02;;;5.55;;
67508;SDS011;54354;44.724;11.284;2023-03-03T18:25:00;12.15;;;6.00;;
67508;SDS011;54354;44.724;11.284;2023-03-03T18:27:35;14.95;;;6.18;;
67508;SDS011;54354;44.724;11.284;2023-03-03T18:43:50;19.52;;;8.25;;
67508;SDS011;54354;44.724;11.284;2023-03-03T18:48:48;16.52;;;8.90;;
67508;SDS011;54354;44.724;11.284;2023-03-03T18:56:44;16.55;;;9.13;;
67508;SDS011;54354;44.724;11.284;2023-03-03T19:04:50;16.27;;;10.50;;
67508;SDS011;54354;44.724;11.284;2023-03-03T19:12:45;19.80;;;9.30;;
67508;SDS011;54354;44.724;11.284;2023-03-03T19:17:55;13.05;;;9.13;;
67508;SDS011;54354;44.724;11.284;2023-03-03T19:20:24;11.05;;;9.02;;
67508;SDS011;54354;44.724;11.284;2023-03-03T19:22:52;13.50;;;8.85;;
67508;SDS011;54354;44.724;11.284;2023-03-03T19:25:29;8.73;;;7.72;;
67508;SDS011;54354;44.724;11.284;2023-03-03T19:33:27;12.30;;;7.20;;
67508;SDS011;54354;44.724;11.284;2023-03-03T19:41:26;11.38;;;6.78;;
67508;SDS011;54354;44.724;11.284;2023-03-03T19:47:02;8.07;;;6.45;;
67508;SDS011;54354;44.724;11.284;2023-03-03T19:52:11;10.25;;;6.18;;
67508;SDS011;54354;44.724;11.284;2023-03-03T19:57:52;9.70;;;5.82;;
67508;SDS011;54354;44.724;11.284;2023-03-03T20:05:49;9.75;;;6.07;;
67508;SDS011;54354;44.724;11.284;2023-03-03T20:08:27;11.25;;;6.50;;
67508;SDS011;54354;44.724;11.284;2023-03-03T20:11:00;8.32;;;6.28;;
67508;SDS011;54354;44.724;11.284;2023-03-03T20:18:46;8.43;;;6.55;;
67508;SDS011;54354;44.724;11.284;2023-03-03T20:37:44;11.75;;;6.90;;
67508;SDS011;54354;44.724;11.284;2023-03-03T20:45:59;13.55;;;7.10;;
67508;SDS011;54354;44.724;11.284;2023-03-03T20:59:25;17.85;;;9.10;;
67508;SDS011;54354;44.724;11.284;2023-03-03T21:05:18;14.02;;;9.85;;
67508;SDS011;54354;44.724;11.284;2023-03-03T21:07:49;13.88;;;9.95;;
67508;SDS011;54354;44.724;11.284;2023-03-03T21:10:32;15.30;;;11.05;;
67508;SDS011;54354;44.724;11.284;2023-03-03T21:15:48;17.42;;;11.70;;
67508;SDS011;54354;44.724;11.284;2023-03-03T21:18:24;17.58;;;11.77;;
67508;SDS011;54354;44.724;11.284;2023-03-03T21:20:50;17.88;;;12.60;;
67508;SDS011;54354;44.724;11.284;2023-03-03T21:23:16;16.38;;;12.20;;
67508;SDS011;54354;44.724;11.284;2023-03-03T21:25:49;22.00;;;12.65;;
67508;SDS011;54354;44.724;11.284;2023-03-03T21:31:04;18.15;;;11.80;;
67508;SDS011;54354;44.724;11.284;2023-03-03T21:33:36;15.35;;;11.32;;
67508;SDS011;54354;44.724;11.284;2023-03-03T21:36:05;16.38;;;12.00;;
67508;SDS011;54354;44.724;11.284;2023-03-03T21:38:32;14.40;;;12.55;;
67508;SDS011;54354;44.724;11.284;2023-03-03T21:40:58;18.58;;;12.65;;
67508;SDS011;54354;44.724;11.284;2023-03-03T21:43:39;15.48;;;13.25;;
67508;SDS011;54354;44.724;11.284;2023-03-03T21:46:04;21.75;;;13.32;;
67508;SDS011;54354;44.724;11.284;2023-03-03T21:48:30;18.50;;;12.60;;
67508;SDS011;54354;44.724;11.284;2023-03-03T21:50:56;16.35;;;11.80;;
67508;SDS011;54354;44.724;11.284;2023-03-03T21:53:22;16.08;;;11.35;;
67508;SDS011;54354;44.724;11.284;2023-03-03T21:55:54;16.90;;;12.07;;
67508;SDS011;54354;44.724;11.284;2023-03-03T21:58:19;13.43;;;10.77;;
67508;SDS011;54354;44.724;11.284;2023-03-03T22:00:45;13.82;;;10.68;;
67508;SDS011;54354;44.724;11.284;2023-03-03T22:03:11;18.63;;;11.60;;
67508;SDS011;54354;44.724;11.284;2023-03-03T22:05:38;13.27;;;10.82;;
67508;SDS011;54354;44.724;11.284;2023-03-03T22:08:04;13.13;;;10.52;;
67508;SDS011;54354;44.724;11.284;2023-03-03T22:10:30;16.38;;;12.48;;